sensor_id;sensor_type;location;lat;lon;timestamp;P1;durP1;ratioP1;P2;durP2;ratioP2
27794;SDS011;15176;50.844;4.412;2023-04-06T00:01:15;19.02;;;8.73;;
27794;SDS011;15176;50.844;4.412;2023-04-06T00:03:41;21.75;;;10.88;;
27794;SDS011;15176;50.844;4.412;2023-04-06T00:06:07;22.60;;;10.38;;
27794;SDS011;15176;50.844;4.412;2023-04-06T00:08:33;19.77;;;10.52;;
27794;SDS011;15176;50.844;4.412;2023-04-06T00:10:58;21.98;;;10.82;;
27794;SDS011;15176;50.844;4.412;2023-04-06T00:13:24;20.63;;;11.07;;
27794;SDS011;15176;50.844;4.412;2023-04-06T00:15:50;26.02;;;11.48;;
27794;SDS011;15176;50.844;4.412;2023-04-06T00:18:16;19.95;;;10.32;;
27794;SDS011;15176;50.844;4.412;2023-04-06T00:20:41;15.90;;;8.10;;
27794;SDS011;15176;50.844;4.412;2023-04-06T00:23:07;20.23;;;10.52;;
27794;SDS011;15176;50.844;4.412;2023-04-06T00:25:32;26.20;;;10.90;;
27794;SDS011;15176;50.844;4.412;2023-04-06T00:27:58;20.27;;;10.75;;
27794;SDS011;15176;50.844;4.412;2023-04-06T00:30:24;18.63;;;9.95;;
27794;SDS011;15176;50.844;4.412;2023-04-06T00:32:50;18.73;;;8.63;;
27794;SDS011;15176;50.844;4.412;2023-04-06T00:35:16;17.45;;;9.30;;
27794;SDS011;15176;50.844;4.412;2023-04-06T00:37:42;16.75;;;8.95;;
27794;SDS011;15176;50.844;4.412;2023-04-06T00:40:08;23.30;;;10.07;;
27794;SDS011;15176;50.844;4.412;2023-04-06T00:42:34;19.60;;;10.02;;
27794;SDS011;15176;50.844;4.412;2023-04-06T00:45:00;22.25;;;10.73;;
27794;SDS011;15176;50.844;4.412;2023-04-06T00:47:26;23.55;;;10.75;;
27794;SDS011;15176;50.844;4.412;2023-04-06T00:49:53;20.63;;;10.82;;
27794;SDS011;15176;50.844;4.412;2023-04-06T00:52:20;22.15;;;10.93;;
27794;SDS011;15176;50.844;4.412;2023-04-06T00:54:46;24.38;;;9.98;;
27794;SDS011;15176;50.844;4.412;2023-04-06T00:57:13;20.17;;;10.85;;
27794;SDS011;15176;50.844;4.412;2023-04-06T00:59:39;23.05;;;10.18;;
27794;SDS011;15176;50.844;4.412;2023-04-06T01:02:06;21.77;;;8.18;;
27794;SDS011;15176;50.844;4.412;2023-04-06T01:04:33;23.70;;;10.95;;
27794;SDS011;15176;50.844;4.412;2023-04-06T01:06:59;20.60;;;9.68;;
27794;SDS011;15176;50.844;4.412;2023-04-06T01:09:26;21.23;;;10.45;;
27794;SDS011;15176;50.844;4.412;2023-04-06T01:11:54;17.95;;;10.23;;
27794;SDS011;15176;50.844;4.412;2023-04-06T01:14:21;18.88;;;10.35;;
27794;SDS011;15176;50.844;4.412;2023-04-06T01:16:47;15.43;;;8.20;;
27794;SDS011;15176;50.844;4.412;2023-04-06T01:19:13;20.50;;;10.93;;
27794;SDS011;15176;50.844;4.412;2023-04-06T01:21:39;24.38;;;11.02;;
27794;SDS011;15176;50.844;4.412;2023-04-06T01:24:06;17.67;;;8.98;;
27794;SDS011;15176;50.844;4.412;2023-04-06T01:26:32;18.02;;;9.48;;
27794;SDS011;15176;50.844;4.412;2023-04-06T01:29:00;21.88;;;10.70;;
27794;SDS011;15176;50.844;4.412;2023-04-06T01:31:26;16.98;;;9.40;;
27794;SDS011;15176;50.844;4.412;2023-04-06T01:33:52;20.38;;;10.48;;
27794;SDS011;15176;50.844;4.412;2023-04-06T01:36:18;17.83;;;10.13;;
27794;SDS011;15176;50.844;4.412;2023-04-06T01:38:44;22.00;;;11.32;;
27794;SDS011;15176;50.844;4.412;2023-04-06T01:41:10;21.52;;;11.30;;
27794;SDS011;15176;50.844;4.412;2023-04-06T01:43:36;19.17;;;9.38;;
27794;SDS011;15176;50.844;4.412;2023-04-06T01:46:02;16.58;;;8.43;;
27794;SDS011;15176;50.844;4.412;2023-04-06T01:48:28;23.95;;;10.40;;
27794;SDS011;15176;50.844;4.412;2023-04-06T01:50:54;18.17;;;8.73;;
27794;SDS011;15176;50.844;4.412;2023-04-06T01:53:20;15.15;;;8.80;;
27794;SDS011;15176;50.844;4.412;2023-04-06T01:55:46;16.77;;;9.40;;
27794;SDS011;15176;50.844;4.412;2023-04-06T01:58:12;21.67;;;9.88;;
27794;SDS011;15176;50.844;4.412;2023-04-06T02:00:38;19.98;;;11.15;;
27794;SDS011;15176;50.844;4.412;2023-04-06T02:03:04;19.40;;;10.55;;
27794;SDS011;15176;50.844;4.412;2023-04-06T02:05:30;20.35;;;10.20;;
27794;SDS011;15176;50.844;4.412;2023-04-06T02:07:58;23.13;;;11.25;;
27794;SDS011;15176;50.844;4.412;2023-04-06T02:10:24;15.90;;;7.70;;
27794;SDS011;15176;50.844;4.412;2023-04-06T02:12:49;18.80;;;10.73;;
27794;SDS011;15176;50.844;4.412;2023-04-06T02:15:15;19.65;;;11.15;;
27794;SDS011;15176;50.844;4.412;2023-04-06T02:17:41;22.20;;;10.73;;
27794;SDS011;15176;50.844;4.412;2023-04-06T02:20:07;25.27;;;11.27;;
27794;SDS011;15176;50.844;4.412;2023-04-06T02:22:34;20.75;;;11.40;;
27794;SDS011;15176;50.844;4.412;2023-04-06T02:25:01;23.15;;;11.73;;
27794;SDS011;15176;50.844;4.412;2023-04-06T02:27:27;18.50;;;10.88;;
27794;SDS011;15176;50.844;4.412;2023-04-06T02:29:53;17.25;;;8.05;;
27794;SDS011;15176;50.844;4.412;2023-04-06T02:32:19;18.05;;;10.02;;
27794;SDS011;15176;50.844;4.412;2023-04-06T02:34:44;19.35;;;10.20;;
27794;SDS011;15176;50.844;4.412;2023-04-06T02:37:10;14.25;;;8.48;;
27794;SDS011;15176;50.844;4.412;2023-04-06T02:39:36;24.02;;;11.07;;
27794;SDS011;15176;50.844;4.412;2023-04-06T02:42:02;20.20;;;10.30;;
27794;SDS011;15176;50.844;4.412;2023-04-06T02:44:28;20.20;;;11.05;;
27794;SDS011;15176;50.844;4.412;2023-04-06T02:46:53;21.85;;;11.88;;
27794;SDS011;15176;50.844;4.412;2023-04-06T02:49:19;20.95;;;11.50;;
27794;SDS011;15176;50.844;4.412;2023-04-06T02:51:45;23.55;;;12.38;;
27794;SDS011;15176;50.844;4.412;2023-04-06T02:54:10;22.55;;;12.15;;
27794;SDS011;15176;50.844;4.412;2023-04-06T02:56:36;24.23;;;12.07;;
27794;SDS011;15176;50.844;4.412;2023-04-06T02:59:02;25.02;;;11.82;;
27794;SDS011;15176;50.844;4.412;2023-04-06T03:01:27;21.33;;;11.80;;
27794;SDS011;15176;50.844;4.412;2023-04-06T03:03:53;20.23;;;11.00;;
27794;SDS011;15176;50.844;4.412;2023-04-06T03:06:19;22.45;;;11.20;;
27794;SDS011;15176;50.844;4.412;2023-04-06T03:08:45;15.73;;;8.73;;
27794;SDS011;15176;50.844;4.412;2023-04-06T03:11:12;22.90;;;11.82;;
27794;SDS011;15176;50.844;4.412;2023-04-06T03:13:37;23.20;;;11.20;;
27794;SDS011;15176;50.844;4.412;2023-04-06T03:16:04;20.48;;;11.13;;
27794;SDS011;15176;50.844;4.412;2023-04-06T03:18:30;21.85;;;11.95;;
27794;SDS011;15176;50.844;4.412;2023-04-06T03:20:57;18.23;;;9.93;;
27794;SDS011;15176;50.844;4.412;2023-04-06T03:23:22;19.83;;;11.38;;
27794;SDS011;15176;50.844;4.412;2023-04-06T03:25:48;26.40;;;12.80;;
27794;SDS011;15176;50.844;4.412;2023-04-06T03:28:14;21.50;;;11.43;;
27794;SDS011;15176;50.844;4.412;2023-04-06T03:30:41;24.83;;;12.75;;
27794;SDS011;15176;50.844;4.412;2023-04-06T03:33:06;21.05;;;11.50;;
27794;SDS011;15176;50.844;4.412;2023-04-06T03:35:32;22.88;;;12.20;;
27794;SDS011;15176;50.844;4.412;2023-04-06T03:37:58;22.73;;;12.43;;
27794;SDS011;15176;50.844;4.412;2023-04-06T03:40:24;20.83;;;11.40;;
27794;SDS011;15176;50.844;4.412;2023-04-06T03:42:49;22.90;;;12.70;;
27794;SDS011;15176;50.844;4.412;2023-04-06T03:45:15;18.05;;;10.85;;
27794;SDS011;15176;50.844;4.412;2023-04-06T03:47:43;14.30;;;8.35;;
27794;SDS011;15176;50.844;4.412;2023-04-06T03:50:09;19.80;;;11.75;;
27794;SDS011;15176;50.844;4.412;2023-04-06T03:52:35;14.60;;;8.90;;
27794;SDS011;15176;50.844;4.412;2023-04-06T03:55:01;20.67;;;11.90;;
27794;SDS011;15176;50.844;4.412;2023-04-06T03:57:27;14.05;;;7.47;;
27794;SDS011;15176;50.844;4.412;2023-04-06T03:59:52;18.08;;;10.95;;
27794;SDS011;15176;50.844;4.412;2023-04-06T04:02:18;19.17;;;11.55;;
27794;SDS011;15176;50.844;4.412;2023-04-06T04:04:44;19.55;;;11.60;;
27794;SDS011;15176;50.844;4.412;2023-04-06T04:07:11;19.20;;;9.82;;
27794;SDS011;15176;50.844;4.412;2023-04-06T04:09:37;21.55;;;12.70;;
27794;SDS011;15176;50.844;4.412;2023-04-06T04:12:03;21.17;;;12.15;;
27794;SDS011;15176;50.844;4.412;2023-04-06T04:14:28;18.48;;;10.10;;
27794;SDS011;15176;50.844;4.412;2023-04-06T04:16:54;19.35;;;10.48;;
27794;SDS011;15176;50.844;4.412;2023-04-06T04:19:23;18.48;;;10.73;;
27794;SDS011;15176;50.844;4.412;2023-04-06T04:21:49;27.95;;;14.95;;
27794;SDS011;15176;50.844;4.412;2023-04-06T04:24:14;22.05;;;10.65;;
27794;SDS011;15176;50.844;4.412;2023-04-06T04:26:40;23.58;;;13.40;;
27794;SDS011;15176;50.844;4.412;2023-04-06T04:29:06;24.08;;;13.07;;
27794;SDS011;15176;50.844;4.412;2023-04-06T04:31:32;22.13;;;13.32;;
27794;SDS011;15176;50.844;4.412;2023-04-06T04:33:59;23.50;;;12.85;;
27794;SDS011;15176;50.844;4.412;2023-04-06T04:36:26;21.25;;;12.27;;
27794;SDS011;15176;50.844;4.412;2023-04-06T04:38:52;22.27;;;12.82;;
27794;SDS011;15176;50.844;4.412;2023-04-06T04:41:18;24.55;;;13.15;;
27794;SDS011;15176;50.844;4.412;2023-04-06T04:43:43;22.38;;;11.13;;
27794;SDS011;15176;50.844;4.412;2023-04-06T04:46:09;25.20;;;12.43;;
27794;SDS011;15176;50.844;4.412;2023-04-06T04:48:35;22.73;;;12.10;;
27794;SDS011;15176;50.844;4.412;2023-04-06T04:51:01;25.30;;;12.77;;
27794;SDS011;15176;50.844;4.412;2023-04-06T04:53:26;25.38;;;13.48;;
27794;SDS011;15176;50.844;4.412;2023-04-06T04:55:52;25.92;;;12.95;;
27794;SDS011;15176;50.844;4.412;2023-04-06T04:58:18;22.63;;;12.88;;
27794;SDS011;15176;50.844;4.412;2023-04-06T05:00:45;22.20;;;12.75;;
27794;SDS011;15176;50.844;4.412;2023-04-06T05:03:18;23.48;;;12.32;;
27794;SDS011;15176;50.844;4.412;2023-04-06T05:05:47;25.42;;;14.10;;
27794;SDS011;15176;50.844;4.412;2023-04-06T05:08:12;24.83;;;13.15;;
27794;SDS011;15176;50.844;4.412;2023-04-06T05:10:38;24.17;;;13.13;;
27794;SDS011;15176;50.844;4.412;2023-04-06T05:13:05;27.30;;;13.65;;
27794;SDS011;15176;50.844;4.412;2023-04-06T05:15:31;27.35;;;13.77;;
27794;SDS011;15176;50.844;4.412;2023-04-06T05:17:59;27.00;;;13.30;;
27794;SDS011;15176;50.844;4.412;2023-04-06T05:20:25;27.48;;;13.90;;
27794;SDS011;15176;50.844;4.412;2023-04-06T05:22:51;25.95;;;13.43;;
27794;SDS011;15176;50.844;4.412;2023-04-06T05:25:17;21.38;;;12.73;;
27794;SDS011;15176;50.844;4.412;2023-04-06T05:27:43;23.92;;;13.27;;
27794;SDS011;15176;50.844;4.412;2023-04-06T05:30:09;28.85;;;13.80;;
27794;SDS011;15176;50.844;4.412;2023-04-06T05:32:35;28.33;;;14.27;;
27794;SDS011;15176;50.844;4.412;2023-04-06T05:35:01;24.73;;;13.68;;
27794;SDS011;15176;50.844;4.412;2023-04-06T05:37:26;20.98;;;12.48;;
27794;SDS011;15176;50.844;4.412;2023-04-06T05:39:52;26.85;;;13.75;;
27794;SDS011;15176;50.844;4.412;2023-04-06T05:42:17;26.35;;;13.85;;
27794;SDS011;15176;50.844;4.412;2023-04-06T05:44:43;26.77;;;13.95;;
27794;SDS011;15176;50.844;4.412;2023-04-06T05:47:09;24.25;;;13.43;;
27794;SDS011;15176;50.844;4.412;2023-04-06T05:49:35;26.17;;;13.82;;
27794;SDS011;15176;50.844;4.412;2023-04-06T05:52:00;24.05;;;13.32;;
27794;SDS011;15176;50.844;4.412;2023-04-06T05:54:26;27.42;;;13.98;;
27794;SDS011;15176;50.844;4.412;2023-04-06T05:56:52;32.22;;;15.20;;
27794;SDS011;15176;50.844;4.412;2023-04-06T05:59:18;26.40;;;14.02;;
27794;SDS011;15176;50.844;4.412;2023-04-06T06:01:44;30.85;;;14.48;;
27794;SDS011;15176;50.844;4.412;2023-04-06T06:04:09;28.70;;;15.15;;
27794;SDS011;15176;50.844;4.412;2023-04-06T06:06:35;27.33;;;14.50;;
27794;SDS011;15176;50.844;4.412;2023-04-06T06:09:01;28.75;;;15.27;;
27794;SDS011;15176;50.844;4.412;2023-04-06T06:11:28;36.25;;;14.63;;
27794;SDS011;15176;50.844;4.412;2023-04-06T06:13:55;31.63;;;13.50;;
27794;SDS011;15176;50.844;4.412;2023-04-06T06:16:21;28.02;;;14.73;;
27794;SDS011;15176;50.844;4.412;2023-04-06T06:18:47;28.23;;;14.10;;
27794;SDS011;15176;50.844;4.412;2023-04-06T06:21:13;36.90;;;14.55;;
27794;SDS011;15176;50.844;4.412;2023-04-06T06:23:38;25.35;;;13.38;;
27794;SDS011;15176;50.844;4.412;2023-04-06T06:26:04;32.78;;;15.05;;
27794;SDS011;15176;50.844;4.412;2023-04-06T06:28:30;26.10;;;14.38;;
27794;SDS011;15176;50.844;4.412;2023-04-06T06:30:57;29.67;;;14.93;;
27794;SDS011;15176;50.844;4.412;2023-04-06T06:33:23;28.63;;;13.80;;
27794;SDS011;15176;50.844;4.412;2023-04-06T06:35:51;26.48;;;14.00;;
27794;SDS011;15176;50.844;4.412;2023-04-06T06:38:17;30.52;;;14.98;;
27794;SDS011;15176;50.844;4.412;2023-04-06T06:40:44;27.20;;;14.05;;
27794;SDS011;15176;50.844;4.412;2023-04-06T06:43:11;32.20;;;14.52;;
27794;SDS011;15176;50.844;4.412;2023-04-06T06:45:36;32.20;;;14.68;;
27794;SDS011;15176;50.844;4.412;2023-04-06T06:48:02;24.17;;;13.20;;
27794;SDS011;15176;50.844;4.412;2023-04-06T06:50:28;25.20;;;13.82;;
27794;SDS011;15176;50.844;4.412;2023-04-06T06:52:54;24.83;;;14.30;;
27794;SDS011;15176;50.844;4.412;2023-04-06T06:55:20;26.13;;;14.40;;
27794;SDS011;15176;50.844;4.412;2023-04-06T06:57:46;22.92;;;12.70;;
27794;SDS011;15176;50.844;4.412;2023-04-06T07:00:13;29.73;;;13.27;;
27794;SDS011;15176;50.844;4.412;2023-04-06T07:02:39;23.98;;;12.77;;
27794;SDS011;15176;50.844;4.412;2023-04-06T07:05:05;24.92;;;12.45;;
27794;SDS011;15176;50.844;4.412;2023-04-06T07:07:32;27.98;;;13.90;;
27794;SDS011;15176;50.844;4.412;2023-04-06T07:10:00;24.75;;;13.20;;
27794;SDS011;15176;50.844;4.412;2023-04-06T07:12:26;24.80;;;12.57;;
27794;SDS011;15176;50.844;4.412;2023-04-06T07:14:53;30.88;;;13.10;;
27794;SDS011;15176;50.844;4.412;2023-04-06T07:17:20;24.13;;;11.57;;
27794;SDS011;15176;50.844;4.412;2023-04-06T07:19:45;22.27;;;11.48;;
27794;SDS011;15176;50.844;4.412;2023-04-06T07:22:11;21.17;;;11.10;;
27794;SDS011;15176;50.844;4.412;2023-04-06T07:24:37;21.70;;;10.23;;
27794;SDS011;15176;50.844;4.412;2023-04-06T07:27:03;20.67;;;10.57;;
27794;SDS011;15176;50.844;4.412;2023-04-06T07:29:28;21.33;;;10.70;;
27794;SDS011;15176;50.844;4.412;2023-04-06T07:31:54;16.88;;;9.57;;
27794;SDS011;15176;50.844;4.412;2023-04-06T07:34:21;15.40;;;8.77;;
27794;SDS011;15176;50.844;4.412;2023-04-06T07:36:46;17.67;;;9.85;;
27794;SDS011;15176;50.844;4.412;2023-04-06T07:39:14;20.20;;;9.43;;
27794;SDS011;15176;50.844;4.412;2023-04-06T07:41:39;22.38;;;9.95;;
27794;SDS011;15176;50.844;4.412;2023-04-06T07:44:06;13.30;;;6.60;;
27794;SDS011;15176;50.844;4.412;2023-04-06T07:46:32;20.13;;;10.18;;
27794;SDS011;15176;50.844;4.412;2023-04-06T07:48:59;20.70;;;8.88;;
27794;SDS011;15176;50.844;4.412;2023-04-06T07:51:25;14.18;;;7.07;;
27794;SDS011;15176;50.844;4.412;2023-04-06T07:53:52;16.05;;;9.05;;
27794;SDS011;15176;50.844;4.412;2023-04-06T07:56:17;17.60;;;7.68;;
27794;SDS011;15176;50.844;4.412;2023-04-06T07:58:43;14.75;;;8.50;;
27794;SDS011;15176;50.844;4.412;2023-04-06T08:01:09;19.90;;;9.05;;
27794;SDS011;15176;50.844;4.412;2023-04-06T08:03:35;16.55;;;7.47;;
27794;SDS011;15176;50.844;4.412;2023-04-06T08:06:01;15.63;;;8.27;;
27794;SDS011;15176;50.844;4.412;2023-04-06T08:08:28;20.17;;;9.13;;
27794;SDS011;15176;50.844;4.412;2023-04-06T08:10:54;19.05;;;9.70;;
27794;SDS011;15176;50.844;4.412;2023-04-06T08:13:20;20.08;;;9.57;;
27794;SDS011;15176;50.844;4.412;2023-04-06T08:15:46;16.60;;;8.77;;
27794;SDS011;15176;50.844;4.412;2023-04-06T08:18:12;15.32;;;8.02;;
27794;SDS011;15176;50.844;4.412;2023-04-06T08:20:38;14.20;;;7.30;;
27794;SDS011;15176;50.844;4.412;2023-04-06T08:23:04;13.65;;;7.97;;
27794;SDS011;15176;50.844;4.412;2023-04-06T08:25:31;15.52;;;8.57;;
27794;SDS011;15176;50.844;4.412;2023-04-06T08:27:59;15.60;;;7.40;;
27794;SDS011;15176;50.844;4.412;2023-04-06T08:30:25;17.00;;;7.97;;
27794;SDS011;15176;50.844;4.412;2023-04-06T08:32:53;14.68;;;8.40;;
27794;SDS011;15176;50.844;4.412;2023-04-06T08:35:19;16.95;;;8.25;;
27794;SDS011;15176;50.844;4.412;2023-04-06T08:37:45;15.43;;;8.05;;
27794;SDS011;15176;50.844;4.412;2023-04-06T08:40:11;19.02;;;8.30;;
27794;SDS011;15176;50.844;4.412;2023-04-06T08:42:39;16.58;;;8.57;;
27794;SDS011;15176;50.844;4.412;2023-04-06T08:45:08;22.77;;;9.48;;
27794;SDS011;15176;50.844;4.412;2023-04-06T08:47:35;15.25;;;7.95;;
27794;SDS011;15176;50.844;4.412;2023-04-06T08:50:05;15.63;;;8.35;;
27794;SDS011;15176;50.844;4.412;2023-04-06T08:52:33;14.63;;;8.85;;
27794;SDS011;15176;50.844;4.412;2023-04-06T08:54:59;16.50;;;8.52;;
27794;SDS011;15176;50.844;4.412;2023-04-06T08:57:25;18.83;;;9.27;;
27794;SDS011;15176;50.844;4.412;2023-04-06T08:59:54;15.05;;;7.93;;
27794;SDS011;15176;50.844;4.412;2023-04-06T09:02:21;12.70;;;7.03;;
27794;SDS011;15176;50.844;4.412;2023-04-06T09:04:52;18.20;;;9.25;;
27794;SDS011;15176;50.844;4.412;2023-04-06T09:07:19;16.13;;;9.07;;
27794;SDS011;15176;50.844;4.412;2023-04-06T09:09:45;14.55;;;7.90;;
27794;SDS011;15176;50.844;4.412;2023-04-06T09:14:50;14.27;;;8.43;;
27794;SDS011;15176;50.844;4.412;2023-04-06T09:17:22;15.00;;;7.93;;
27794;SDS011;15176;50.844;4.412;2023-04-06T09:19:49;17.52;;;8.23;;
27794;SDS011;15176;50.844;4.412;2023-04-06T09:22:15;15.63;;;6.72;;
27794;SDS011;15176;50.844;4.412;2023-04-06T09:27:11;12.75;;;7.68;;
27794;SDS011;15176;50.844;4.412;2023-04-06T09:29:38;16.65;;;9.10;;
27794;SDS011;15176;50.844;4.412;2023-04-06T09:32:04;15.45;;;7.70;;
27794;SDS011;15176;50.844;4.412;2023-04-06T09:34:31;15.35;;;7.97;;
27794;SDS011;15176;50.844;4.412;2023-04-06T09:36:58;12.48;;;7.32;;
27794;SDS011;15176;50.844;4.412;2023-04-06T09:39:24;16.30;;;8.38;;
27794;SDS011;15176;50.844;4.412;2023-04-06T09:41:51;13.00;;;7.05;;
27794;SDS011;15176;50.844;4.412;2023-04-06T09:44:17;15.32;;;7.43;;
27794;SDS011;15176;50.844;4.412;2023-04-06T09:46:44;12.60;;;7.25;;
27794;SDS011;15176;50.844;4.412;2023-04-06T09:49:11;14.07;;;7.80;;
27794;SDS011;15176;50.844;4.412;2023-04-06T09:51:42;13.82;;;7.55;;
27794;SDS011;15176;50.844;4.412;2023-04-06T09:54:18;15.35;;;7.55;;
27794;SDS011;15176;50.844;4.412;2023-04-06T09:59:24;12.25;;;6.70;;
27794;SDS011;15176;50.844;4.412;2023-04-06T10:01:57;14.77;;;8.48;;
27794;SDS011;15176;50.844;4.412;2023-04-06T10:07:06;14.60;;;8.68;;
27794;SDS011;15176;50.844;4.412;2023-04-06T10:09:37;14.88;;;7.65;;
27794;SDS011;15176;50.844;4.412;2023-04-06T10:12:06;16.10;;;8.38;;
27794;SDS011;15176;50.844;4.412;2023-04-06T10:14:35;13.00;;;7.25;;
27794;SDS011;15176;50.844;4.412;2023-04-06T10:17:02;15.32;;;8.38;;
27794;SDS011;15176;50.844;4.412;2023-04-06T10:19:29;12.82;;;7.85;;
27794;SDS011;15176;50.844;4.412;2023-04-06T10:22:06;14.85;;;8.35;;
27794;SDS011;15176;50.844;4.412;2023-04-06T10:24:35;17.25;;;8.70;;
27794;SDS011;15176;50.844;4.412;2023-04-06T10:27:01;13.25;;;7.68;;
27794;SDS011;15176;50.844;4.412;2023-04-06T10:29:28;15.32;;;8.90;;
27794;SDS011;15176;50.844;4.412;2023-04-06T10:32:05;15.50;;;8.10;;
27794;SDS011;15176;50.844;4.412;2023-04-06T10:34:34;15.10;;;8.85;;
27794;SDS011;15176;50.844;4.412;2023-04-06T10:37:10;12.40;;;6.88;;
27794;SDS011;15176;50.844;4.412;2023-04-06T10:39:45;15.32;;;8.63;;
27794;SDS011;15176;50.844;4.412;2023-04-06T10:42:12;12.35;;;7.05;;
27794;SDS011;15176;50.844;4.412;2023-04-06T10:44:42;13.98;;;8.38;;
27794;SDS011;15176;50.844;4.412;2023-04-06T10:47:15;17.02;;;9.20;;
27794;SDS011;15176;50.844;4.412;2023-04-06T10:49:43;16.38;;;8.30;;
27794;SDS011;15176;50.844;4.412;2023-04-06T10:52:08;14.20;;;8.40;;
27794;SDS011;15176;50.844;4.412;2023-04-06T10:54:34;16.90;;;9.02;;
27794;SDS011;15176;50.844;4.412;2023-04-06T10:57:08;15.52;;;8.07;;
27794;SDS011;15176;50.844;4.412;2023-04-06T10:59:35;15.23;;;8.50;;
27794;SDS011;15176;50.844;4.412;2023-04-06T11:02:00;16.90;;;9.38;;
27794;SDS011;15176;50.844;4.412;2023-04-06T11:04:26;16.08;;;8.35;;
27794;SDS011;15176;50.844;4.412;2023-04-06T11:06:52;16.38;;;9.10;;
27794;SDS011;15176;50.844;4.412;2023-04-06T11:09:25;15.00;;;8.38;;
27794;SDS011;15176;50.844;4.412;2023-04-06T11:11:52;15.23;;;9.02;;
27794;SDS011;15176;50.844;4.412;2023-04-06T11:14:18;14.65;;;8.45;;
27794;SDS011;15176;50.844;4.412;2023-04-06T11:16:45;15.77;;;8.07;;
27794;SDS011;15176;50.844;4.412;2023-04-06T11:19:15;13.05;;;8.13;;
27794;SDS011;15176;50.844;4.412;2023-04-06T11:21:45;14.27;;;7.82;;
27794;SDS011;15176;50.844;4.412;2023-04-06T11:24:15;14.20;;;7.43;;
27794;SDS011;15176;50.844;4.412;2023-04-06T11:26:52;16.30;;;9.05;;
27794;SDS011;15176;50.844;4.412;2023-04-06T11:29:26;17.80;;;9.10;;
27794;SDS011;15176;50.844;4.412;2023-04-06T11:31:53;16.10;;;8.55;;
27794;SDS011;15176;50.844;4.412;2023-04-06T11:34:24;16.98;;;9.00;;
27794;SDS011;15176;50.844;4.412;2023-04-06T11:37:00;14.48;;;8.85;;
27794;SDS011;15176;50.844;4.412;2023-04-06T11:39:30;15.57;;;9.15;;
27794;SDS011;15176;50.844;4.412;2023-04-06T11:41:57;15.85;;;9.23;;
27794;SDS011;15176;50.844;4.412;2023-04-06T11:44:40;16.75;;;9.30;;
27794;SDS011;15176;50.844;4.412;2023-04-06T11:47:14;14.40;;;7.97;;
27794;SDS011;15176;50.844;4.412;2023-04-06T11:49:40;18.08;;;8.88;;
27794;SDS011;15176;50.844;4.412;2023-04-06T11:52:17;14.95;;;8.82;;
27794;SDS011;15176;50.844;4.412;2023-04-06T11:54:45;15.00;;;9.07;;
27794;SDS011;15176;50.844;4.412;2023-04-06T11:57:12;17.23;;;9.27;;
27794;SDS011;15176;50.844;4.412;2023-04-06T11:59:37;13.55;;;7.82;;
27794;SDS011;15176;50.844;4.412;2023-04-06T12:02:04;16.92;;;8.73;;
27794;SDS011;15176;50.844;4.412;2023-04-06T12:04:31;12.63;;;7.32;;
27794;SDS011;15176;50.844;4.412;2023-04-06T12:06:57;17.13;;;9.90;;
27794;SDS011;15176;50.844;4.412;2023-04-06T12:09:23;15.93;;;9.48;;
27794;SDS011;15176;50.844;4.412;2023-04-06T12:11:48;19.38;;;10.75;;
27794;SDS011;15176;50.844;4.412;2023-04-06T12:14:14;15.40;;;9.50;;
27794;SDS011;15176;50.844;4.412;2023-04-06T12:16:40;13.88;;;8.65;;
27794;SDS011;15176;50.844;4.412;2023-04-06T12:19:06;16.05;;;10.27;;
27794;SDS011;15176;50.844;4.412;2023-04-06T12:21:33;15.98;;;9.00;;
27794;SDS011;15176;50.844;4.412;2023-04-06T12:24:00;19.35;;;9.20;;
27794;SDS011;15176;50.844;4.412;2023-04-06T12:26:26;13.40;;;8.40;;
27794;SDS011;15176;50.844;4.412;2023-04-06T12:28:52;14.77;;;9.57;;
27794;SDS011;15176;50.844;4.412;2023-04-06T12:31:19;15.68;;;9.70;;
27794;SDS011;15176;50.844;4.412;2023-04-06T12:33:46;13.60;;;8.25;;
27794;SDS011;15176;50.844;4.412;2023-04-06T12:36:16;15.30;;;8.45;;
27794;SDS011;15176;50.844;4.412;2023-04-06T12:38:47;15.88;;;7.63;;
27794;SDS011;15176;50.844;4.412;2023-04-06T12:41:13;14.68;;;8.73;;
27794;SDS011;15176;50.844;4.412;2023-04-06T12:43:40;11.77;;;7.38;;
27794;SDS011;15176;50.844;4.412;2023-04-06T12:46:07;14.88;;;9.10;;
27794;SDS011;15176;50.844;4.412;2023-04-06T12:48:32;16.17;;;9.10;;
27794;SDS011;15176;50.844;4.412;2023-04-06T12:50:59;11.25;;;6.75;;
27794;SDS011;15176;50.844;4.412;2023-04-06T12:53:26;11.90;;;7.18;;
27794;SDS011;15176;50.844;4.412;2023-04-06T12:55:54;11.73;;;7.55;;
27794;SDS011;15176;50.844;4.412;2023-04-06T12:58:21;13.63;;;8.82;;
27794;SDS011;15176;50.844;4.412;2023-04-06T13:00:48;14.77;;;9.15;;
27794;SDS011;15176;50.844;4.412;2023-04-06T13:03:15;12.60;;;7.05;;
27794;SDS011;15176;50.844;4.412;2023-04-06T13:05:47;15.60;;;9.38;;
27794;SDS011;15176;50.844;4.412;2023-04-06T13:08:14;15.25;;;9.02;;
27794;SDS011;15176;50.844;4.412;2023-04-06T13:10:47;16.05;;;9.40;;
27794;SDS011;15176;50.844;4.412;2023-04-06T13:13:17;13.75;;;9.07;;
27794;SDS011;15176;50.844;4.412;2023-04-06T13:15:46;15.82;;;8.20;;
27794;SDS011;15176;50.844;4.412;2023-04-06T13:18:11;14.18;;;8.98;;
27794;SDS011;15176;50.844;4.412;2023-04-06T13:20:37;13.60;;;8.48;;
27794;SDS011;15176;50.844;4.412;2023-04-06T13:23:02;15.55;;;9.90;;
27794;SDS011;15176;50.844;4.412;2023-04-06T13:25:29;14.85;;;9.25;;
27794;SDS011;15176;50.844;4.412;2023-04-06T13:27:55;16.33;;;9.48;;
27794;SDS011;15176;50.844;4.412;2023-04-06T13:30:21;20.75;;;10.57;;
27794;SDS011;15176;50.844;4.412;2023-04-06T13:32:47;18.23;;;9.70;;
27794;SDS011;15176;50.844;4.412;2023-04-06T13:35:14;14.73;;;9.35;;
27794;SDS011;15176;50.844;4.412;2023-04-06T13:37:40;17.65;;;10.60;;
27794;SDS011;15176;50.844;4.412;2023-04-06T13:40:06;13.30;;;8.40;;
27794;SDS011;15176;50.844;4.412;2023-04-06T13:42:32;14.90;;;8.35;;
27794;SDS011;15176;50.844;4.412;2023-04-06T13:44:59;16.35;;;9.80;;
27794;SDS011;15176;50.844;4.412;2023-04-06T13:47:26;18.35;;;10.27;;
27794;SDS011;15176;50.844;4.412;2023-04-06T13:49:52;17.48;;;10.27;;
27794;SDS011;15176;50.844;4.412;2023-04-06T13:52:18;16.17;;;9.88;;
27794;SDS011;15176;50.844;4.412;2023-04-06T13:54:45;12.35;;;7.72;;
27794;SDS011;15176;50.844;4.412;2023-04-06T13:57:11;16.23;;;10.27;;
27794;SDS011;15176;50.844;4.412;2023-04-06T13:59:37;15.30;;;9.52;;
27794;SDS011;15176;50.844;4.412;2023-04-06T14:02:04;12.43;;;7.43;;
27794;SDS011;15176;50.844;4.412;2023-04-06T14:04:31;18.13;;;10.98;;
27794;SDS011;15176;50.844;4.412;2023-04-06T14:06:58;13.80;;;8.85;;
27794;SDS011;15176;50.844;4.412;2023-04-06T14:09:25;14.70;;;9.65;;
27794;SDS011;15176;50.844;4.412;2023-04-06T14:11:51;15.48;;;9.18;;
27794;SDS011;15176;50.844;4.412;2023-04-06T14:14:17;16.45;;;9.52;;
27794;SDS011;15176;50.844;4.412;2023-04-06T14:16:43;16.30;;;10.27;;
27794;SDS011;15176;50.844;4.412;2023-04-06T14:19:10;15.48;;;9.68;;
27794;SDS011;15176;50.844;4.412;2023-04-06T14:21:39;15.98;;;9.68;;
27794;SDS011;15176;50.844;4.412;2023-04-06T14:24:06;15.38;;;8.77;;
27794;SDS011;15176;50.844;4.412;2023-04-06T14:26:32;15.88;;;8.77;;
27794;SDS011;15176;50.844;4.412;2023-04-06T14:29:01;17.20;;;10.43;;
27794;SDS011;15176;50.844;4.412;2023-04-06T14:31:28;16.35;;;10.50;;
27794;SDS011;15176;50.844;4.412;2023-04-06T14:33:53;24.73;;;15.80;;
27794;SDS011;15176;50.844;4.412;2023-04-06T14:36:19;15.80;;;9.23;;